sensor_id;sensor_type;location;lat;lon;timestamp;P1;durP1;ratioP1;P2;durP2;ratioP2
18653;SDS011;9456;47.824;16.228;2023-05-18T00:00:54;8.60;;;4.60;;
18653;SDS011;9456;47.824;16.228;2023-05-18T00:03:23;7.47;;;5.23;;
18653;SDS011;9456;47.824;16.228;2023-05-18T00:05:52;9.13;;;4.40;;
18653;SDS011;9456;47.824;16.228;2023-05-18T00:08:21;8.57;;;5.03;;
18653;SDS011;9456;47.824;16.228;2023-05-18T00:10:50;5.90;;;4.13;;
18653;SDS011;9456;47.824;16.228;2023-05-18T00:13:19;6.17;;;3.80;;
18653;SDS011;9456;47.824;16.228;2023-05-18T00:15:48;9.67;;;4.53;;
18653;SDS011;9456;47.824;16.228;2023-05-18T00:18:21;7.93;;;3.97;;
18653;SDS011;9456;47.824;16.228;2023-05-18T00:20:50;8.43;;;4.57;;
18653;SDS011;9456;47.824;16.228;2023-05-18T00:23:21;14.00;;;4.17;;
18653;SDS011;9456;47.824;16.228;2023-05-18T00:25:49;7.87;;;4.57;;
18653;SDS011;9456;47.824;16.228;2023-05-18T00:28:18;13.27;;;3.67;;
18653;SDS011;9456;47.824;16.228;2023-05-18T00:30:47;5.90;;;3.83;;
18653;SDS011;9456;47.824;16.228;2023-05-18T00:33:16;8.20;;;3.83;;
18653;SDS011;9456;47.824;16.228;2023-05-18T00:35:45;8.93;;;4.30;;
18653;SDS011;9456;47.824;16.228;2023-05-18T00:38:14;6.50;;;3.70;;
18653;SDS011;9456;47.824;16.228;2023-05-18T00:40:43;11.60;;;4.50;;
18653;SDS011;9456;47.824;16.228;2023-05-18T00:43:12;9.37;;;4.20;;
18653;SDS011;9456;47.824;16.228;2023-05-18T00:45:41;7.37;;;4.23;;
18653;SDS011;9456;47.824;16.228;2023-05-18T00:48:10;10.73;;;4.40;;
18653;SDS011;9456;47.824;16.228;2023-05-18T00:50:39;8.73;;;4.33;;
18653;SDS011;9456;47.824;16.228;2023-05-18T00:53:08;8.13;;;4.10;;
18653;SDS011;9456;47.824;16.228;2023-05-18T00:55:37;10.10;;;4.27;;
18653;SDS011;9456;47.824;16.228;2023-05-18T00:58:06;8.60;;;4.00;;
18653;SDS011;9456;47.824;16.228;2023-05-18T01:00:35;7.23;;;4.30;;
18653;SDS011;9456;47.824;16.228;2023-05-18T01:03:03;9.50;;;4.43;;
18653;SDS011;9456;47.824;16.228;2023-05-18T01:05:32;7.53;;;4.37;;
18653;SDS011;9456;47.824;16.228;2023-05-18T01:08:01;8.10;;;4.17;;
18653;SDS011;9456;47.824;16.228;2023-05-18T01:10:31;8.53;;;3.70;;
18653;SDS011;9456;47.824;16.228;2023-05-18T01:13:01;8.77;;;4.27;;
18653;SDS011;9456;47.824;16.228;2023-05-18T01:15:30;7.23;;;4.50;;
18653;SDS011;9456;47.824;16.228;2023-05-18T01:18:00;10.17;;;4.50;;
18653;SDS011;9456;47.824;16.228;2023-05-18T01:20:36;7.93;;;4.33;;
18653;SDS011;9456;47.824;16.228;2023-05-18T01:23:16;7.43;;;4.23;;
18653;SDS011;9456;47.824;16.228;2023-05-18T01:26:02;9.57;;;4.40;;
18653;SDS011;9456;47.824;16.228;2023-05-18T01:28:36;6.57;;;4.03;;
18653;SDS011;9456;47.824;16.228;2023-05-18T01:31:05;7.03;;;4.10;;
18653;SDS011;9456;47.824;16.228;2023-05-18T01:33:34;9.67;;;4.57;;
18653;SDS011;9456;47.824;16.228;2023-05-18T01:36:04;9.50;;;4.47;;
18653;SDS011;9456;47.824;16.228;2023-05-18T01:38:34;10.03;;;4.50;;
18653;SDS011;9456;47.824;16.228;2023-05-18T01:41:05;9.00;;;4.77;;
18653;SDS011;9456;47.824;16.228;2023-05-18T01:43:33;9.03;;;4.30;;
18653;SDS011;9456;47.824;16.228;2023-05-18T01:46:03;7.37;;;4.30;;
18653;SDS011;9456;47.824;16.228;2023-05-18T01:48:32;12.17;;;4.20;;
18653;SDS011;9456;47.824;16.228;2023-05-18T01:51:01;14.10;;;4.60;;
18653;SDS011;9456;47.824;16.228;2023-05-18T01:53:32;8.80;;;4.10;;
18653;SDS011;9456;47.824;16.228;2023-05-18T01:56:00;6.53;;;4.23;;
18653;SDS011;9456;47.824;16.228;2023-05-18T01:58:29;5.37;;;3.80;;
18653;SDS011;9456;47.824;16.228;2023-05-18T02:00:58;8.20;;;4.30;;
18653;SDS011;9456;47.824;16.228;2023-05-18T02:03:29;8.03;;;3.83;;
18653;SDS011;9456;47.824;16.228;2023-05-18T02:05:58;9.10;;;4.30;;
18653;SDS011;9456;47.824;16.228;2023-05-18T02:08:27;11.63;;;5.10;;
18653;SDS011;9456;47.824;16.228;2023-05-18T02:10:56;8.80;;;4.10;;
18653;SDS011;9456;47.824;16.228;2023-05-18T02:13:25;9.03;;;4.03;;
18653;SDS011;9456;47.824;16.228;2023-05-18T02:15:54;10.03;;;4.33;;
18653;SDS011;9456;47.824;16.228;2023-05-18T02:18:23;8.43;;;4.00;;
18653;SDS011;9456;47.824;16.228;2023-05-18T02:20:57;7.07;;;4.17;;
18653;SDS011;9456;47.824;16.228;2023-05-18T02:23:27;6.67;;;4.03;;
18653;SDS011;9456;47.824;16.228;2023-05-18T02:25:56;10.60;;;4.03;;
18653;SDS011;9456;47.824;16.228;2023-05-18T02:28:25;8.80;;;4.50;;
18653;SDS011;9456;47.824;16.228;2023-05-18T02:30:54;8.60;;;4.13;;
18653;SDS011;9456;47.824;16.228;2023-05-18T02:33:24;11.60;;;4.00;;
18653;SDS011;9456;47.824;16.228;2023-05-18T02:35:53;7.60;;;4.17;;
18653;SDS011;9456;47.824;16.228;2023-05-18T02:38:21;6.70;;;4.47;;
18653;SDS011;9456;47.824;16.228;2023-05-18T02:40:50;8.43;;;4.00;;
18653;SDS011;9456;47.824;16.228;2023-05-18T02:43:19;9.17;;;3.87;;
18653;SDS011;9456;47.824;16.228;2023-05-18T02:45:48;9.73;;;4.40;;
18653;SDS011;9456;47.824;16.228;2023-05-18T02:48:17;10.50;;;5.13;;
18653;SDS011;9456;47.824;16.228;2023-05-18T02:50:48;8.23;;;4.40;;
18653;SDS011;9456;47.824;16.228;2023-05-18T02:53:16;9.00;;;4.37;;
18653;SDS011;9456;47.824;16.228;2023-05-18T02:55:45;8.67;;;4.13;;
18653;SDS011;9456;47.824;16.228;2023-05-18T02:58:15;7.47;;;4.17;;
18653;SDS011;9456;47.824;16.228;2023-05-18T03:00:43;5.70;;;4.40;;
18653;SDS011;9456;47.824;16.228;2023-05-18T03:03:12;6.07;;;4.00;;
18653;SDS011;9456;47.824;16.228;2023-05-18T03:05:41;9.20;;;4.30;;
18653;SDS011;9456;47.824;16.228;2023-05-18T03:08:10;10.80;;;4.27;;
18653;SDS011;9456;47.824;16.228;2023-05-18T03:10:40;9.90;;;4.57;;
18653;SDS011;9456;47.824;16.228;2023-05-18T03:13:09;12.27;;;4.80;;
18653;SDS011;9456;47.824;16.228;2023-05-18T03:15:38;8.33;;;4.37;;
18653;SDS011;9456;47.824;16.228;2023-05-18T03:18:06;10.53;;;4.23;;
18653;SDS011;9456;47.824;16.228;2023-05-18T03:20:35;11.43;;;4.40;;
18653;SDS011;9456;47.824;16.228;2023-05-18T03:23:04;10.37;;;4.23;;
18653;SDS011;9456;47.824;16.228;2023-05-18T03:25:35;10.77;;;4.70;;
18653;SDS011;9456;47.824;16.228;2023-05-18T03:28:04;8.30;;;3.60;;
18653;SDS011;9456;47.824;16.228;2023-05-18T03:30:33;8.50;;;3.87;;
18653;SDS011;9456;47.824;16.228;2023-05-18T03:33:02;10.33;;;4.30;;
18653;SDS011;9456;47.824;16.228;2023-05-18T03:35:31;7.80;;;3.80;;
18653;SDS011;9456;47.824;16.228;2023-05-18T03:38:00;9.10;;;3.70;;
18653;SDS011;9456;47.824;16.228;2023-05-18T03:40:29;8.70;;;4.20;;
18653;SDS011;9456;47.824;16.228;2023-05-18T03:42:58;8.47;;;4.47;;
18653;SDS011;9456;47.824;16.228;2023-05-18T03:45:27;10.50;;;4.50;;
18653;SDS011;9456;47.824;16.228;2023-05-18T03:47:56;7.07;;;4.03;;
18653;SDS011;9456;47.824;16.228;2023-05-18T03:50:25;7.00;;;3.67;;
18653;SDS011;9456;47.824;16.228;2023-05-18T03:52:55;8.70;;;4.10;;
18653;SDS011;9456;47.824;16.228;2023-05-18T03:55:23;7.20;;;4.43;;
18653;SDS011;9456;47.824;16.228;2023-05-18T03:57:52;10.60;;;3.97;;
18653;SDS011;9456;47.824;16.228;2023-05-18T04:00:21;9.30;;;4.20;;
18653;SDS011;9456;47.824;16.228;2023-05-18T04:02:50;10.77;;;4.37;;
18653;SDS011;9456;47.824;16.228;2023-05-18T04:05:19;9.10;;;4.43;;
18653;SDS011;9456;47.824;16.228;2023-05-18T04:07:48;10.70;;;4.33;;
18653;SDS011;9456;47.824;16.228;2023-05-18T04:10:17;6.97;;;3.67;;
18653;SDS011;9456;47.824;16.228;2023-05-18T04:12:46;9.53;;;4.37;;
18653;SDS011;9456;47.824;16.228;2023-05-18T04:15:15;8.60;;;4.07;;
18653;SDS011;9456;47.824;16.228;2023-05-18T04:17:44;10.07;;;4.47;;
18653;SDS011;9456;47.824;16.228;2023-05-18T04:20:13;14.43;;;4.70;;
18653;SDS011;9456;47.824;16.228;2023-05-18T04:22:43;14.33;;;4.83;;
18653;SDS011;9456;47.824;16.228;2023-05-18T04:25:11;8.80;;;3.93;;
18653;SDS011;9456;47.824;16.228;2023-05-18T04:27:41;8.40;;;4.50;;
18653;SDS011;9456;47.824;16.228;2023-05-18T04:30:12;7.00;;;4.00;;
18653;SDS011;9456;47.824;16.228;2023-05-18T04:32:40;11.27;;;4.07;;
18653;SDS011;9456;47.824;16.228;2023-05-18T04:35:10;9.93;;;4.07;;
18653;SDS011;9456;47.824;16.228;2023-05-18T04:40:27;12.07;;;4.57;;
18653;SDS011;9456;47.824;16.228;2023-05-18T04:42:56;9.93;;;4.27;;
18653;SDS011;9456;47.824;16.228;2023-05-18T04:45:25;7.43;;;4.03;;
18653;SDS011;9456;47.824;16.228;2023-05-18T04:47:54;8.13;;;3.97;;
18653;SDS011;9456;47.824;16.228;2023-05-18T04:50:23;10.83;;;4.00;;
18653;SDS011;9456;47.824;16.228;2023-05-18T04:52:52;9.77;;;4.07;;
18653;SDS011;9456;47.824;16.228;2023-05-18T04:55:21;11.47;;;4.20;;
18653;SDS011;9456;47.824;16.228;2023-05-18T04:57:51;10.23;;;4.13;;
18653;SDS011;9456;47.824;16.228;2023-05-18T05:00:20;8.60;;;4.10;;
18653;SDS011;9456;47.824;16.228;2023-05-18T05:02:50;8.77;;;3.90;;
18653;SDS011;9456;47.824;16.228;2023-05-18T05:05:19;8.57;;;3.70;;
18653;SDS011;9456;47.824;16.228;2023-05-18T05:07:49;10.57;;;3.70;;
18653;SDS011;9456;47.824;16.228;2023-05-18T05:10:18;9.13;;;3.77;;
18653;SDS011;9456;47.824;16.228;2023-05-18T05:12:47;10.73;;;3.73;;
18653;SDS011;9456;47.824;16.228;2023-05-18T05:15:16;15.43;;;4.33;;
18653;SDS011;9456;47.824;16.228;2023-05-18T05:17:46;12.10;;;3.87;;
18653;SDS011;9456;47.824;16.228;2023-05-18T05:20:14;9.60;;;4.23;;
18653;SDS011;9456;47.824;16.228;2023-05-18T05:22:43;11.07;;;4.40;;
18653;SDS011;9456;47.824;16.228;2023-05-18T05:25:12;11.00;;;3.63;;
18653;SDS011;9456;47.824;16.228;2023-05-18T05:27:41;8.63;;;3.90;;
18653;SDS011;9456;47.824;16.228;2023-05-18T05:30:14;13.40;;;3.97;;
18653;SDS011;9456;47.824;16.228;2023-05-18T05:32:43;8.17;;;3.53;;
18653;SDS011;9456;47.824;16.228;2023-05-18T05:35:12;6.93;;;3.40;;
18653;SDS011;9456;47.824;16.228;2023-05-18T05:37:41;17.90;;;4.93;;
18653;SDS011;9456;47.824;16.228;2023-05-18T05:40:10;10.20;;;4.00;;
18653;SDS011;9456;47.824;16.228;2023-05-18T05:42:39;9.03;;;4.50;;
18653;SDS011;9456;47.824;16.228;2023-05-18T05:45:09;9.83;;;3.70;;
18653;SDS011;9456;47.824;16.228;2023-05-18T05:47:38;10.40;;;4.07;;
18653;SDS011;9456;47.824;16.228;2023-05-18T05:50:07;10.37;;;3.47;;
18653;SDS011;9456;47.824;16.228;2023-05-18T05:52:36;12.77;;;3.87;;
18653;SDS011;9456;47.824;16.228;2023-05-18T05:55:06;12.80;;;3.87;;
18653;SDS011;9456;47.824;16.228;2023-05-18T05:57:35;9.30;;;3.77;;
18653;SDS011;9456;47.824;16.228;2023-05-18T06:00:04;10.93;;;4.23;;
18653;SDS011;9456;47.824;16.228;2023-05-18T06:02:35;9.53;;;3.60;;
18653;SDS011;9456;47.824;16.228;2023-05-18T06:05:04;9.33;;;4.00;;
18653;SDS011;9456;47.824;16.228;2023-05-18T06:07:34;13.00;;;4.47;;
18653;SDS011;9456;47.824;16.228;2023-05-18T06:10:12;15.40;;;4.77;;
18653;SDS011;9456;47.824;16.228;2023-05-18T06:12:41;7.27;;;3.27;;
18653;SDS011;9456;47.824;16.228;2023-05-18T06:15:10;14.77;;;4.03;;
18653;SDS011;9456;47.824;16.228;2023-05-18T06:17:40;10.47;;;4.47;;
18653;SDS011;9456;47.824;16.228;2023-05-18T06:20:10;8.90;;;4.00;;
18653;SDS011;9456;47.824;16.228;2023-05-18T06:22:40;10.00;;;4.00;;
18653;SDS011;9456;47.824;16.228;2023-05-18T06:25:09;13.03;;;4.50;;
18653;SDS011;9456;47.824;16.228;2023-05-18T06:27:38;9.67;;;3.57;;
18653;SDS011;9456;47.824;16.228;2023-05-18T06:30:08;11.53;;;4.17;;
18653;SDS011;9456;47.824;16.228;2023-05-18T06:32:38;16.53;;;4.50;;
18653;SDS011;9456;47.824;16.228;2023-05-18T06:35:08;9.87;;;3.90;;
18653;SDS011;9456;47.824;16.228;2023-05-18T06:37:37;12.20;;;3.67;;
18653;SDS011;9456;47.824;16.228;2023-05-18T06:40:07;13.13;;;4.07;;
18653;SDS011;9456;47.824;16.228;2023-05-18T06:42:37;13.63;;;4.27;;
18653;SDS011;9456;47.824;16.228;2023-05-18T06:45:07;13.90;;;3.47;;
18653;SDS011;9456;47.824;16.228;2023-05-18T06:47:36;10.70;;;3.97;;
18653;SDS011;9456;47.824;16.228;2023-05-18T06:50:06;11.40;;;4.40;;
18653;SDS011;9456;47.824;16.228;2023-05-18T06:52:35;16.40;;;4.73;;
18653;SDS011;9456;47.824;16.228;2023-05-18T06:55:05;10.37;;;4.27;;
18653;SDS011;9456;47.824;16.228;2023-05-18T06:57:34;14.17;;;4.40;;
18653;SDS011;9456;47.824;16.228;2023-05-18T07:00:03;12.03;;;4.20;;
18653;SDS011;9456;47.824;16.228;2023-05-18T07:02:34;8.10;;;3.63;;
18653;SDS011;9456;47.824;16.228;2023-05-18T07:05:03;9.90;;;3.77;;
18653;SDS011;9456;47.824;16.228;2023-05-18T07:07:33;11.03;;;3.87;;
18653;SDS011;9456;47.824;16.228;2023-05-18T07:10:02;13.10;;;4.03;;
18653;SDS011;9456;47.824;16.228;2023-05-18T07:12:31;14.53;;;4.43;;
18653;SDS011;9456;47.824;16.228;2023-05-18T07:15:00;12.27;;;4.23;;
18653;SDS011;9456;47.824;16.228;2023-05-18T07:17:29;10.70;;;4.03;;
18653;SDS011;9456;47.824;16.228;2023-05-18T07:19:58;12.30;;;4.40;;
18653;SDS011;9456;47.824;16.228;2023-05-18T07:22:27;10.70;;;4.37;;
18653;SDS011;9456;47.824;16.228;2023-05-18T07:24:56;10.57;;;3.83;;
18653;SDS011;9456;47.824;16.228;2023-05-18T07:27:25;13.00;;;4.23;;
18653;SDS011;9456;47.824;16.228;2023-05-18T07:29:53;14.90;;;4.90;;
18653;SDS011;9456;47.824;16.228;2023-05-18T07:32:22;10.00;;;3.30;;
18653;SDS011;9456;47.824;16.228;2023-05-18T07:34:52;12.17;;;4.30;;
18653;SDS011;9456;47.824;16.228;2023-05-18T07:37:21;12.37;;;3.70;;
18653;SDS011;9456;47.824;16.228;2023-05-18T07:39:50;14.07;;;4.50;;
18653;SDS011;9456;47.824;16.228;2023-05-18T07:42:18;13.37;;;4.20;;
18653;SDS011;9456;47.824;16.228;2023-05-18T07:44:47;17.73;;;4.13;;
18653;SDS011;9456;47.824;16.228;2023-05-18T07:47:16;7.83;;;4.13;;
18653;SDS011;9456;47.824;16.228;2023-05-18T07:49:45;7.67;;;3.43;;
18653;SDS011;9456;47.824;16.228;2023-05-18T07:52:14;8.70;;;3.70;;
18653;SDS011;9456;47.824;16.228;2023-05-18T07:54:43;9.70;;;3.60;;
18653;SDS011;9456;47.824;16.228;2023-05-18T07:57:12;10.70;;;3.77;;
18653;SDS011;9456;47.824;16.228;2023-05-18T07:59:41;9.87;;;3.57;;
18653;SDS011;9456;47.824;16.228;2023-05-18T08:02:10;13.37;;;4.10;;
18653;SDS011;9456;47.824;16.228;2023-05-18T08:04:38;14.10;;;4.20;;
18653;SDS011;9456;47.824;16.228;2023-05-18T08:07:07;8.60;;;3.40;;
18653;SDS011;9456;47.824;16.228;2023-05-18T08:09:36;7.20;;;3.60;;
18653;SDS011;9456;47.824;16.228;2023-05-18T08:12:05;11.10;;;3.90;;
18653;SDS011;9456;47.824;16.228;2023-05-18T08:14:35;13.77;;;4.80;;
18653;SDS011;9456;47.824;16.228;2023-05-18T08:17:04;16.60;;;4.70;;
18653;SDS011;9456;47.824;16.228;2023-05-18T08:19:33;10.07;;;5.40;;
18653;SDS011;9456;47.824;16.228;2023-05-18T08:22:02;8.23;;;3.87;;
18653;SDS011;9456;47.824;16.228;2023-05-18T08:24:31;9.17;;;4.27;;
18653;SDS011;9456;47.824;16.228;2023-05-18T08:27:00;7.67;;;3.70;;
18653;SDS011;9456;47.824;16.228;2023-05-18T08:29:29;7.80;;;3.43;;
18653;SDS011;9456;47.824;16.228;2023-05-18T08:31:58;8.13;;;3.00;;
18653;SDS011;9456;47.824;16.228;2023-05-18T08:34:27;11.33;;;3.77;;
18653;SDS011;9456;47.824;16.228;2023-05-18T08:36:59;9.13;;;3.87;;
18653;SDS011;9456;47.824;16.228;2023-05-18T08:39:28;7.03;;;3.43;;
18653;SDS011;9456;47.824;16.228;2023-05-18T08:42:00;7.73;;;3.50;;
18653;SDS011;9456;47.824;16.228;2023-05-18T08:44:30;10.77;;;3.53;;
18653;SDS011;9456;47.824;16.228;2023-05-18T08:46:58;8.10;;;3.20;;
18653;SDS011;9456;47.824;16.228;2023-05-18T08:49:27;11.43;;;3.80;;
18653;SDS011;9456;47.824;16.228;2023-05-18T08:51:56;7.30;;;3.40;;
18653;SDS011;9456;47.824;16.228;2023-05-18T08:54:25;10.20;;;3.73;;
18653;SDS011;9456;47.824;16.228;2023-05-18T08:56:54;6.73;;;3.40;;
18653;SDS011;9456;47.824;16.228;2023-05-18T08:59:23;7.13;;;3.53;;
18653;SDS011;9456;47.824;16.228;2023-05-18T09:01:51;7.27;;;3.83;;
18653;SDS011;9456;47.824;16.228;2023-05-18T09:04:20;9.00;;;3.90;;
18653;SDS011;9456;47.824;16.228;2023-05-18T09:06:49;7.40;;;3.73;;
18653;SDS011;9456;47.824;16.228;2023-05-18T09:09:18;6.43;;;3.30;;
18653;SDS011;9456;47.824;16.228;2023-05-18T09:11:47;8.83;;;4.10;;
18653;SDS011;9456;47.824;16.228;2023-05-18T09:14:16;9.67;;;3.80;;
18653;SDS011;9456;47.824;16.228;2023-05-18T09:16:45;6.07;;;3.77;;
18653;SDS011;9456;47.824;16.228;2023-05-18T09:19:14;8.20;;;3.50;;
18653;SDS011;9456;47.824;16.228;2023-05-18T09:21:43;10.20;;;4.07;;
18653;SDS011;9456;47.824;16.228;2023-05-18T09:24:11;7.03;;;3.27;;
18653;SDS011;9456;47.824;16.228;2023-05-18T09:26:40;10.17;;;4.50;;
18653;SDS011;9456;47.824;16.228;2023-05-18T09:29:15;8.73;;;4.37;;
18653;SDS011;9456;47.824;16.228;2023-05-18T09:31:44;6.10;;;3.93;;
18653;SDS011;9456;47.824;16.228;2023-05-18T09:34:13;8.07;;;3.97;;
18653;SDS011;9456;47.824;16.228;2023-05-18T09:36:42;8.83;;;4.17;;
18653;SDS011;9456;47.824;16.228;2023-05-18T09:39:12;7.07;;;4.10;;
18653;SDS011;9456;47.824;16.228;2023-05-18T09:41:41;9.10;;;3.80;;
18653;SDS011;9456;47.824;16.228;2023-05-18T09:44:10;11.67;;;4.83;;
18653;SDS011;9456;47.824;16.228;2023-05-18T09:46:39;7.57;;;3.60;;
18653;SDS011;9456;47.824;16.228;2023-05-18T09:49:08;9.20;;;4.13;;
18653;SDS011;9456;47.824;16.228;2023-05-18T09:51:37;10.13;;;4.80;;
18653;SDS011;9456;47.824;16.228;2023-05-18T09:54:06;9.97;;;4.20;;
18653;SDS011;9456;47.824;16.228;2023-05-18T09:56:36;11.43;;;4.33;;
18653;SDS011;9456;47.824;16.228;2023-05-18T09:59:08;9.00;;;4.60;;
18653;SDS011;9456;47.824;16.228;2023-05-18T10:01:39;10.63;;;3.93;;
18653;SDS011;9456;47.824;16.228;2023-05-18T10:04:12;9.43;;;4.53;;
18653;SDS011;9456;47.824;16.228;2023-05-18T10:06:43;8.37;;;4.77;;
18653;SDS011;9456;47.824;16.228;2023-05-18T10:09:15;8.80;;;4.63;;
18653;SDS011;9456;47.824;16.228;2023-05-18T10:11:44;10.17;;;4.00;;
18653;SDS011;9456;47.824;16.228;2023-05-18T10:14:13;7.07;;;3.80;;
18653;SDS011;9456;47.824;16.228;2023-05-18T10:16:42;9.13;;;3.73;;
18653;SDS011;9456;47.824;16.228;2023-05-18T10:19:11;9.53;;;3.80;;
18653;SDS011;9456;47.824;16.228;2023-05-18T10:21:40;11.10;;;4.00;;
18653;SDS011;9456;47.824;16.228;2023-05-18T10:24:09;9.57;;;3.43;;
18653;SDS011;9456;47.824;16.228;2023-05-18T10:26:37;7.97;;;3.80;;
18653;SDS011;9456;47.824;16.228;2023-05-18T10:29:06;7.97;;;3.90;;
18653;SDS011;9456;47.824;16.228;2023-05-18T10:31:35;13.33;;;4.80;;
18653;SDS011;9456;47.824;16.228;2023-05-18T10:34:04;6.23;;;3.70;;
18653;SDS011;9456;47.824;16.228;2023-05-18T10:36:33;7.37;;;3.80;;
18653;SDS011;9456;47.824;16.228;2023-05-18T10:39:02;11.47;;;4.53;;
18653;SDS011;9456;47.824;16.228;2023-05-18T10:41:31;10.83;;;3.83;;
18653;SDS011;9456;47.824;16.228;2023-05-18T10:44:00;8.30;;;4.17;;
18653;SDS011;9456;47.824;16.228;2023-05-18T10:46:30;8.63;;;4.60;;
18653;SDS011;9456;47.824;16.228;2023-05-18T10:48:59;12.37;;;5.17;;
18653;SDS011;9456;47.824;16.228;2023-05-18T10:51:29;12.97;;;5.13;;
18653;SDS011;9456;47.824;16.228;2023-05-18T10:54:00;10.93;;;4.30;;
18653;SDS011;9456;47.824;16.228;2023-05-18T10:56:28;12.47;;;4.40;;
18653;SDS011;9456;47.824;16.228;2023-05-18T10:58:57;7.37;;;4.67;;
18653;SDS011;9456;47.824;16.228;2023-05-18T11:01:28;11.10;;;4.47;;
18653;SDS011;9456;47.824;16.228;2023-05-18T11:04:00;10.30;;;4.60;;
18653;SDS011;9456;47.824;16.228;2023-05-18T11:06:29;8.67;;;4.50;;
18653;SDS011;9456;47.824;16.228;2023-05-18T11:08:59;11.33;;;4.90;;
18653;SDS011;9456;47.824;16.228;2023-05-18T11:11:28;13.07;;;4.80;;
18653;SDS011;9456;47.824;16.228;2023-05-18T11:13:59;12.40;;;5.10;;
18653;SDS011;9456;47.824;16.228;2023-05-18T11:16:32;9.63;;;5.00;;
18653;SDS011;9456;47.824;16.228;2023-05-18T11:19:04;11.13;;;4.93;;
18653;SDS011;9456;47.824;16.228;2023-05-18T11:21:52;11.13;;;4.93;;
18653;SDS011;9456;47.824;16.228;2023-05-18T11:24:22;11.37;;;5.00;;
18653;SDS011;9456;47.824;16.228;2023-05-18T11:26:51;8.97;;;4.60;;
18653;SDS011;9456;47.824;16.228;2023-05-18T11:29:30;10.73;;;5.20;;
18653;SDS011;9456;47.824;16.228;2023-05-18T11:31:58;15.77;;;6.43;;
18653;SDS011;9456;47.824;16.228;2023-05-18T11:34:34;14.57;;;5.30;;
18653;SDS011;9456;47.824;16.228;2023-05-18T11:37:11;13.17;;;5.43;;
18653;SDS011;9456;47.824;16.228;2023-05-18T11:39:40;11.13;;;4.87;;
18653;SDS011;9456;47.824;16.228;2023-05-18T11:42:10;10.70;;;5.20;;
18653;SDS011;9456;47.824;16.228;2023-05-18T11:44:39;19.37;;;6.03;;
18653;SDS011;9456;47.824;16.228;2023-05-18T11:47:09;10.73;;;5.10;;
18653;SDS011;9456;47.824;16.228;2023-05-18T11:49:41;13.50;;;5.57;;
18653;SDS011;9456;47.824;16.228;2023-05-18T11:52:14;14.70;;;5.03;;
18653;SDS011;9456;47.824;16.228;2023-05-18T11:54:44;11.47;;;5.30;;
18653;SDS011;9456;47.824;16.228;2023-05-18T11:57:14;11.67;;;5.07;;
18653;SDS011;9456;47.824;16.228;2023-05-18T11:59:42;14.33;;;5.93;;
18653;SDS011;9456;47.824;16.228;2023-05-18T12:02:12;12.13;;;4.97;;
18653;SDS011;9456;47.824;16.228;2023-05-18T12:04:44;15.57;;;6.43;;
18653;SDS011;9456;47.824;16.228;2023-05-18T12:07:13;15.27;;;5.70;;
18653;SDS011;9456;47.824;16.228;2023-05-18T12:09:42;12.47;;;5.90;;
18653;SDS011;9456;47.824;16.228;2023-05-18T12:12:11;12.93;;;5.17;;
18653;SDS011;9456;47.824;16.228;2023-05-18T12:14:41;14.20;;;5.33;;
18653;SDS011;9456;47.824;16.228;2023-05-18T12:17:10;12.17;;;4.60;;
18653;SDS011;9456;47.824;16.228;2023-05-18T12:19:41;13.73;;;6.07;;
18653;SDS011;9456;47.824;16.228;2023-05-18T12:22:10;12.60;;;5.47;;
18653;SDS011;9456;47.824;16.228;2023-05-18T12:24:41;9.73;;;4.77;;
18653;SDS011;9456;47.824;16.228;2023-05-18T12:27:10;11.03;;;5.40;;
18653;SDS011;9456;47.824;16.228;2023-05-18T12:29:39;14.13;;;4.97;;
18653;SDS011;9456;47.824;16.228;2023-05-18T12:32:09;11.27;;;5.20;;
18653;SDS011;9456;47.824;16.228;2023-05-18T12:34:37;12.23;;;5.70;;
18653;SDS011;9456;47.824;16.228;2023-05-18T12:37:06;10.60;;;5.53;;
18653;SDS011;9456;47.824;16.228;2023-05-18T12:39:35;14.73;;;5.80;;
18653;SDS011;9456;47.824;16.228;2023-05-18T12:42:08;14.03;;;5.80;;
18653;SDS011;9456;47.824;16.228;2023-05-18T12:44:41;13.17;;;7.37;;
18653;SDS011;9456;47.824;16.228;2023-05-18T12:47:10;14.63;;;6.90;;
18653;SDS011;9456;47.824;16.228;2023-05-18T12:49:39;17.00;;;6.07;;
18653;SDS011;9456;47.824;16.228;2023-05-18T12:52:08;15.80;;;6.33;;
18653;SDS011;9456;47.824;16.228;2023-05-18T12:54:47;15.30;;;8.57;;
18653;SDS011;9456;47.824;16.228;2023-05-18T12:57:16;24.27;;;9.00;;
18653;SDS011;9456;47.824;16.228;2023-05-18T12:59:47;15.63;;;7.50;;
18653;SDS011;9456;47.824;16.228;2023-05-18T13:02:32;13.67;;;6.03;;
18653;SDS011;9456;47.824;16.228;2023-05-18T13:05:04;12.50;;;5.00;;
18653;SDS011;9456;47.824;16.228;2023-05-18T13:10:14;13.27;;;4.87;;
18653;SDS011;9456;47.824;16.228;2023-05-18T13:12:42;18.60;;;5.40;;
18653;SDS011;9456;47.824;16.228;2023-05-18T13:15:12;14.23;;;5.10;;
18653;SDS011;9456;47.824;16.228;2023-05-18T13:17:53;9.67;;;4.57;;
18653;SDS011;9456;47.824;16.228;2023-05-18T13:20:23;15.80;;;5.40;;
18653;SDS011;9456;47.824;16.228;2023-05-18T13:22:52;9.27;;;5.07;;
18653;SDS011;9456;47.824;16.228;2023-05-18T13:25:21;13.33;;;5.37;;
18653;SDS011;9456;47.824;16.228;2023-05-18T13:27:51;12.13;;;5.23;;
18653;SDS011;9456;47.824;16.228;2023-05-18T13:30:21;14.47;;;4.70;;
18653;SDS011;9456;47.824;16.228;2023-05-18T13:32:50;11.77;;;5.17;;
18653;SDS011;9456;47.824;16.228;2023-05-18T13:35:19;8.27;;;4.80;;
18653;SDS011;9456;47.824;16.228;2023-05-18T13:37:48;11.53;;;4.93;;
18653;SDS011;9456;47.824;16.228;2023-05-18T13:40:17;13.87;;;5.10;;
18653;SDS011;9456;47.824;16.228;2023-05-18T13:42:45;11.23;;;5.07;;
18653;SDS011;9456;47.824;16.228;2023-05-18T13:45:15;11.43;;;4.83;;
18653;SDS011;9456;47.824;16.228;2023-05-18T13:47:45;15.97;;;4.47;;
18653;SDS011;9456;47.824;16.228;2023-05-18T13:50:14;12.87;;;4.50;;
18653;SDS011;9456;47.824;16.228;2023-05-18T13:52:43;13.23;;;4.77;;
18653;SDS011;9456;47.824;16.228;2023-05-18T13:55:12;14.80;;;4.83;;
18653;SDS011;9456;47.824;16.228;2023-05-18T13:57:42;11.17;;;4.80;;
18653;SDS011;9456;47.824;16.228;2023-05-18T14:02:48;12.97;;;5.10;;
18653;SDS011;9456;47.824;16.228;2023-05-18T14:05:17;14.57;;;5.93;;
18653;SDS011;9456;47.824;16.228;2023-05-18T14:07:46;13.40;;;6.20;;
18653;SDS011;9456;47.824;16.228;2023-05-18T14:10:16;15.13;;;6.47;;
18653;SDS011;9456;47.824;16.228;2023-05-18T14:12:45;19.03;;;5.90;;
18653;SDS011;9456;47.824;16.228;2023-05-18T14:15:14;13.20;;;5.10;;
18653;SDS011;9456;47.824;16.228;2023-05-18T14:17:43;12.77;;;5.33;;
18653;SDS011;9456;47.824;16.228;2023-05-18T14:20:12;13.07;;;4.80;;
18653;SDS011;9456;47.824;16.228;2023-05-18T14:22:41;11.03;;;4.83;;
18653;SDS011;9456;47.824;16.228;2023-05-18T14:25:09;10.40;;;4.63;;
18653;SDS011;9456;47.824;16.228;2023-05-18T14:27:38;12.53;;;5.13;;
18653;SDS011;9456;47.824;16.228;2023-05-18T14:30:08;15.30;;;8.37;;
18653;SDS011;9456;47.824;16.228;2023-05-18T14:32:37;20.97;;;11.83;;
18653;SDS011;9456;47.824;16.228;2023-05-18T14:35:06;14.80;;;5.30;;
18653;SDS011;9456;47.824;16.228;2023-05-18T14:37:36;11.00;;;4.67;;
18653;SDS011;9456;47.824;16.228;2023-05-18T14:40:06;11.53;;;5.17;;
18653;SDS011;9456;47.824;16.228;2023-05-18T14:42:35;10.80;;;4.67;;
18653;SDS011;9456;47.824;16.228;2023-05-18T14:45:05;12.07;;;4.47;;
18653;SDS011;9456;47.824;16.228;2023-05-18T14:47:35;13.60;;;4.60;;
18653;SDS011;9456;47.824;16.228;2023-05-18T14:50:08;11.07;;;4.90;;
18653;SDS011;9456;47.824;16.228;2023-05-18T14:52:37;9.10;;;4.37;;
18653;SDS011;9456;47.824;16.228;2023-05-18T14:55:07;9.70;;;4.70;;
18653;SDS011;9456;47.824;16.228;2023-05-18T14:57:36;15.63;;;5.47;;
18653;SDS011;9456;47.824;16.228;2023-05-18T15:00:07;16.10;;;5.37;;
18653;SDS011;9456;47.824;16.228;2023-05-18T15:02:36;16.27;;;5.00;;